Time;durP1;ratioP1;P1;durP2;ratioP2;P2;SDS_P1;SDS_P2;PMS_P1;PMS_P2;Temp;Humidity;BMP_temperature;BMP_pressure;BME280_temperature;BME280_humidity;BME280_pressure;Samples;Min_cycle;Max_cycle;Signal;HPM_P1;HPM_P2
2022/04/05 00:02:25;;;;;;;16.40;7.22;;;;;;;13.94;61.69;100397.47;4939516;28;123744;-68
2022/04/05 00:04:52;;;;;;;13.20;7.03;;;;;;;13.95;61.67;100399.16;4931526;28;114866;-68
2022/04/05 00:07:19;;;;;;;16.05;7.38;;;;;;;13.94;61.81;100403.66;4932379;28;114348;-70
2022/04/05 00:09:47;;;;;;;15.43;7.25;;;;;;;13.95;61.82;100404.50;4944342;28;124254;-68
2022/04/05 00:12:14;;;;;;;12.35;6.97;;;;;;;13.95;61.63;100404.50;4956555;28;123088;-68
2022/04/05 00:14:41;;;;;;;16.90;7.30;;;;;;;13.95;61.82;100399.16;4937315;28;114836;-68
2022/04/05 00:17:08;;;;;;;13.07;6.97;;;;;;;13.96;61.77;100406.22;4935772;28;114665;-69
2022/04/05 00:19:36;;;;;;;11.75;6.90;;;;;;;13.96;61.73;100406.22;4937565;28;124190;-68
2022/04/05 00:22:03;;;;;;;10.95;6.63;;;;;;;13.95;61.83;100404.50;4932166;28;123793;-68
2022/04/05 00:24:31;;;;;;;12.70;6.97;;;;;;;13.94;61.82;100408.97;4953394;28;114511;-68
2022/04/05 00:26:58;;;;;;;15.90;7.22;;;;;;;13.94;61.86;100411.63;4940516;28;114203;-68
2022/04/05 00:29:25;;;;;;;15.98;7.60;;;;;;;13.94;61.65;100408.13;4949302;28;122104;-68
2022/04/05 00:31:52;;;;;;;13.93;7.47;;;;;;;13.93;61.71;100401.09;4930930;28;124205;-68
2022/04/05 00:34:25;;;;;;;14.57;7.40;;;;;;;13.93;61.77;100403.75;4951529;28;114321;-68
2022/04/05 00:36:53;;;;;;;11.73;7.00;;;;;;;13.91;61.88;100418.97;4935788;28;115516;-67
2022/04/05 00:39:21;;;;;;;15.43;7.07;;;;;;;13.90;61.89;100406.59;4932910;28;124380;-68
2022/04/05 00:41:48;;;;;;;11.75;6.95;;;;;;;13.90;61.84;100409.25;4933076;28;123814;-68
2022/04/05 00:44:16;;;;;;;12.68;7.20;;;;;;;13.89;61.70;100405.75;4931024;28;114455;-69
2022/04/05 00:46:43;;;;;;;15.35;6.97;;;;;;;13.89;61.78;100415.56;4932148;28;114175;-69
2022/04/05 00:49:17;;;;;;;17.55;7.22;;;;;;;13.88;61.81;100414.72;4929418;28;123956;-69
2022/04/05 00:51:44;;;;;;;12.93;6.53;;;;;;;13.88;61.80;100419.16;4935137;28;123792;-69
2022/04/05 00:54:13;;;;;;;11.10;6.80;;;;;;;13.89;61.88;100415.56;4933676;28;114642;-69
2022/04/05 00:56:40;;;;;;;9.15;5.85;;;;;;;13.88;61.80;100416.50;4938900;28;112827;-69
2022/04/05 00:59:09;;;;;;;12.43;6.53;;;;;;;13.86;61.83;100421.91;4931173;28;124507;-68
2022/04/05 01:01:38;;;;;;;12.15;6.15;;;;;;;13.86;62.01;100416.59;4943666;28;124219;-67
2022/04/05 01:04:07;;;;;;;12.07;5.97;;;;;;;13.87;62.04;100422.78;4948992;28;113630;-68
2022/04/05 01:06:38;;;;;;;11.80;6.18;;;;;;;13.86;61.90;100426.41;4932656;28;113858;-67
2022/04/05 01:09:09;;;;;;;9.15;5.05;;;;;;;13.86;61.95;100426.41;4939602;28;123885;-68
2022/04/05 01:11:37;;;;;;;8.40;4.85;;;;;;;13.85;61.65;100424.72;4934655;28;123900;-69
2022/04/05 01:14:04;;;;;;;9.75;5.15;;;;;;;13.82;61.74;100425.75;4930258;28;114173;-68
2022/04/05 01:16:33;;;;;;;9.50;4.47;;;;;;;13.81;61.74;100430.22;4934535;28;114656;-68
2022/04/05 01:19:00;;;;;;;8.57;4.65;;;;;;;13.80;61.79;100433.81;4930143;28;123273;-68
2022/04/05 01:21:27;;;;;;;7.18;5.00;;;;;;;13.80;61.66;100428.50;4935867;28;123977;-67
2022/04/05 01:24:06;;;;;;;7.88;5.00;;;;;;;13.80;61.54;100431.16;4933606;28;115038;-68
2022/04/05 01:26:41;;;;;;;9.25;5.22;;;;;;;13.79;61.73;100437.44;4934959;28;114762;-68
2022/04/05 01:29:10;;;;;;;7.90;5.15;;;;;;;13.79;61.68;100431.28;4951573;28;123716;-68
2022/04/05 01:31:46;;;;;;;10.05;5.30;;;;;;;13.78;61.75;100425.09;4952610;28;123773;-67
2022/04/05 01:34:16;;;;;;;8.50;5.32;;;;;;;13.76;61.77;100427.00;4933840;28;114606;-67
2022/04/05 01:36:49;;;;;;;9.30;5.50;;;;;;;13.77;61.67;100428.72;4937944;28;113971;-68
2022/04/05 01:39:19;;;;;;;8.13;4.80;;;;;;;13.78;61.86;100435.72;4941122;28;124355;-68
2022/04/05 01:41:50;;;;;;;10.57;5.35;;;;;;;13.77;61.56;100434.03;4940025;28;123455;-68
2022/04/05 01:44:17;;;;;;;8.27;4.82;;;;;;;13.77;61.59;100428.72;4936304;28;113316;-68
2022/04/05 01:46:44;;;;;;;8.77;5.90;;;;;;;13.77;61.65;100434.03;4931272;28;113637;-68
2022/04/05 01:49:15;;;;;;;10.63;5.88;;;;;;;13.77;61.56;100439.38;4936273;28;124522;-68
2022/04/05 01:51:44;;;;;;;11.52;5.50;;;;;;;13.76;61.60;100434.97;4936507;28;124333;-68
2022/04/05 01:54:14;;;;;;;7.82;5.38;;;;;;;13.76;61.47;100432.31;4951016;28;114323;-69
2022/04/05 01:56:49;;;;;;;9.50;5.32;;;;;;;13.75;61.63;100438.63;4935923;28;114025;-69
2022/04/05 01:59:21;;;;;;;10.32;5.97;;;;;;;13.74;61.52;100438.69;4935306;28;124314;-69
2022/04/05 02:01:49;;;;;;;10.90;6.10;;;;;;;13.74;61.63;100438.69;4942418;28;124697;-68
2022/04/05 02:04:17;;;;;;;11.30;6.20;;;;;;;13.74;61.40;100441.38;4960660;28;113256;-68
2022/04/05 02:06:45;;;;;;;8.13;5.40;;;;;;;13.73;61.46;100436.97;4935697;28;113896;-69
2022/04/05 02:09:14;;;;;;;10.38;6.13;;;;;;;13.71;61.55;100447.75;4937153;28;124134;-68
2022/04/05 02:11:43;;;;;;;10.20;5.85;;;;;;;13.70;61.43;100446.03;4950742;28;123980;-69
2022/04/05 02:14:25;;;;;;;9.10;6.13;;;;;;;13.68;61.50;100445.28;4950737;28;114685;-69
2022/04/05 02:16:55;;;;;;;11.27;5.97;;;;;;;13.67;61.64;100442.72;4956459;28;114312;-69
2022/04/05 02:19:23;;;;;;;9.95;6.57;;;;;;;13.65;61.51;100440.13;4932320;28;123143;-69
2022/04/05 02:21:52;;;;;;;10.57;6.20;;;;;;;13.64;61.40;100449.09;4947380;28;123000;-70
2022/04/05 02:24:19;;;;;;;11.48;6.15;;;;;;;13.63;61.58;100442.91;4948388;28;113633;-69
2022/04/05 02:26:48;;;;;;;9.02;6.25;;;;;;;13.65;61.44;100449.94;4953933;28;113555;-69
2022/04/05 02:29:19;;;;;;;9.52;6.20;;;;;;;13.63;61.35;100452.69;4956231;28;122991;-69
2022/04/05 02:31:49;;;;;;;10.68;6.57;;;;;;;13.60;61.44;100447.59;4956853;28;122926;-69
2022/04/05 02:34:19;;;;;;;8.68;5.55;;;;;;;13.58;61.34;100452.13;4951892;28;113601;-69
2022/04/05 02:36:56;;;;;;;13.23;6.90;;;;;;;13.56;61.39;100452.25;4941692;28;114715;-70
2022/04/05 02:39:23;;;;;;;12.93;6.25;;;;;;;13.56;61.54;100446.06;4946221;28;123305;-69
2022/04/05 02:41:55;;;;;;;11.38;6.53;;;;;;;13.53;61.45;100457.75;4938273;28;124065;-69
2022/04/05 02:44:23;;;;;;;11.75;7.15;;;;;;;13.52;61.52;100455.19;4953750;28;113352;-69
2022/04/05 02:46:57;;;;;;;12.82;6.63;;;;;;;13.50;61.64;100454.44;4952975;28;113218;-69
2022/04/05 02:49:28;;;;;;;11.65;6.35;;;;;;;13.50;61.64;100457.09;4938504;28;124290;-69
2022/04/05 02:51:55;;;;;;;12.63;6.65;;;;;;;13.50;61.71;100451.78;4952898;28;123007;-69
2022/04/05 02:54:30;;;;;;;11.85;6.75;;;;;;;13.50;61.62;100452.63;4951287;28;116141;-68
2022/04/05 02:56:59;;;;;;;11.73;6.78;;;;;;;13.51;61.78;100458.81;4935892;28;113348;-68
2022/04/05 02:59:27;;;;;;;9.82;6.22;;;;;;;13.52;61.66;100449.88;4950015;28;123379;-68
2022/04/05 03:01:55;;;;;;;9.85;6.50;;;;;;;13.51;61.80;100449.03;4946879;28;123045;-68
2022/04/05 03:04:22;;;;;;;12.90;6.55;;;;;;;13.52;61.60;100450.72;4932017;28;115399;-68
2022/04/05 03:06:51;;;;;;;11.68;6.78;;;;;;;13.53;61.87;100451.59;4947524;28;114079;-68
2022/04/05 03:09:21;;;;;;;11.45;6.32;;;;;;;13.54;61.67;100455.94;4949697;28;123643;-68
2022/04/05 03:11:51;;;;;;;10.63;6.32;;;;;;;13.54;61.68;100447.97;4953342;28;123115;-68
2022/04/05 03:14:19;;;;;;;12.20;6.15;;;;;;;13.55;61.64;100455.00;4935400;28;113412;-68
2022/04/05 03:16:47;;;;;;;12.10;6.63;;;;;;;13.55;61.85;100449.69;4955600;28;113599;-69
2022/04/05 03:19:18;;;;;;;9.55;6.00;;;;;;;13.55;61.76;100449.69;4952706;28;123092;-68
2022/04/05 03:21:47;;;;;;;8.88;5.72;;;;;;;13.54;61.64;100450.63;4937159;28;123390;-68
2022/04/05 03:24:14;;;;;;;8.98;6.50;;;;;;;13.53;61.67;100448.94;4950562;28;113607;-68
2022/04/05 03:26:42;;;;;;;9.40;5.50;;;;;;;13.52;61.80;100449.88;4948166;28;113126;-68
2022/04/05 03:29:10;;;;;;;9.07;5.93;;;;;;;13.51;61.83;100453.50;4947388;28;123617;-69
2022/04/05 03:31:37;;;;;;;9.27;6.10;;;;;;;13.50;62.00;100452.63;4934691;28;124312;-68
2022/04/05 03:34:06;;;;;;;10.52;5.90;;;;;;;13.51;61.84;100448.19;4945204;28;113871;-69
2022/04/05 03:36:33;;;;;;;11.68;5.90;;;;;;;13.52;61.86;100449.88;4936963;28;114085;-68
2022/04/05 03:39:01;;;;;;;9.50;5.88;;;;;;;13.51;61.97;100454.34;4955253;28;124442;-69
2022/04/05 03:41:29;;;;;;;9.95;6.13;;;;;;;13.52;62.02;100449.88;4946161;28;123728;-69
2022/04/05 03:43:58;;;;;;;11.38;6.50;;;;;;;13.52;61.94;100448.06;4955537;28;113440;-69
2022/04/05 03:46:33;;;;;;;9.90;6.15;;;;;;;13.53;61.85;100440.94;4947390;28;113475;-69
2022/04/05 03:49:01;;;;;;;10.85;6.45;;;;;;;13.54;61.96;100447.97;4952371;28;123144;-68
2022/04/05 03:51:29;;;;;;;9.55;6.38;;;;;;;13.53;61.97;100451.59;4953705;28;123422;-68
2022/04/05 03:54:00;;;;;;;12.55;6.88;;;;;;;13.54;62.04;100447.97;4948935;28;114829;-69
2022/04/05 03:56:30;;;;;;;10.80;6.85;;;;;;;13.53;61.99;100446.25;4935781;28;114074;-68
2022/04/05 03:59:02;;;;;;;10.27;6.50;;;;;;;13.52;62.08;100440.06;4933534;28;123141;-68
2022/04/05 04:01:30;;;;;;;11.75;6.68;;;;;;;13.52;61.98;100445.38;4932439;28;123056;-68
2022/04/05 04:03:58;;;;;;;10.50;6.50;;;;;;;13.53;62.05;100446.25;4946758;28;113618;-69
2022/04/05 04:06:26;;;;;;;11.88;6.55;;;;;;;13.54;62.02;100442.63;4950050;28;113295;-68
2022/04/05 04:08:54;;;;;;;11.38;7.03;;;;;;;13.54;62.08;100442.63;4946626;28;123698;-68
2022/04/05 04:11:22;;;;;;;11.07;7.22;;;;;;;13.53;62.14;100435.63;4946489;28;122956;-68
2022/04/05 04:13:51;;;;;;;12.98;7.32;;;;;;;13.54;61.99;100437.31;4949334;28;113367;-68
2022/04/05 04:16:23;;;;;;;12.98;7.50;;;;;;;13.54;62.23;100437.31;4955012;28;113031;-68
2022/04/05 04:18:50;;;;;;;11.27;6.32;;;;;;;13.51;62.12;100437.53;4936492;28;124182;-68
2022/04/05 04:21:18;;;;;;;12.15;6.95;;;;;;;13.50;62.06;100434.00;4948556;28;123052;-68
2022/04/05 04:23:46;;;;;;;11.98;6.53;;;;;;;13.51;62.09;100433.06;4932683;28;113509;-68
2022/04/05 04:26:14;;;;;;;13.95;7.60;;;;;;;13.52;62.09;100431.25;4930871;28;114057;-68
2022/04/05 04:28:41;;;;;;;13.85;7.43;;;;;;;13.51;62.15;100426.88;4948590;28;125287;-68
2022/04/05 04:31:14;;;;;;;12.07;6.70;;;;;;;13.50;62.13;100435.81;4951102;28;124091;-68
2022/04/05 04:33:41;;;;;;;11.20;6.60;;;;;;;13.49;62.21;100429.63;4954661;28;113405;-68
2022/04/05 04:36:08;;;;;;;11.38;6.75;;;;;;;13.50;62.25;100427.81;4936065;28;115959;-68
2022/04/05 04:38:36;;;;;;;12.30;6.93;;;;;;;13.49;62.27;100434.13;4951745;28;122974;-68
2022/04/05 04:41:03;;;;;;;12.50;7.20;;;;;;;13.50;62.28;100435.81;4935672;28;124363;-68
2022/04/05 04:43:31;;;;;;;10.95;6.88;;;;;;;13.50;62.43;100435.81;4933434;28;115105;-67
2022/04/05 04:46:00;;;;;;;14.00;7.05;;;;;;;13.51;62.22;100424.22;4946333;28;114241;-67
2022/04/05 04:48:28;;;;;;;12.05;7.30;;;;;;;13.51;62.34;100432.22;4929102;28;124363;-68
2022/04/05 04:50:55;;;;;;;11.43;6.68;;;;;;;13.51;62.28;100434.88;4934505;28;123729;-68
2022/04/05 04:53:22;;;;;;;13.18;7.05;;;;;;;13.51;62.42;100437.53;4947916;28;115361;-67
2022/04/05 04:55:50;;;;;;;12.20;7.03;;;;;;;13.50;62.47;100430.50;4930932;28;114010;-67
2022/04/05 04:58:37;;;;;;;10.43;6.38;;;;;;;13.51;62.40;100437.53;4931438;28;124606;-67
2022/04/05 05:01:05;;;;;;;13.55;6.68;;;;;;;13.52;62.37;100444.53;4928757;28;123933;-67
2022/04/05 05:03:33;;;;;;;11.45;6.18;;;;;;;13.52;62.26;100439.22;4934983;28;114665;-67
2022/04/05 05:06:01;;;;;;;12.23;6.30;;;;;;;13.54;62.40;100442.63;4934250;28;114068;-67
2022/04/05 05:08:28;;;;;;;10.63;6.35;;;;;;;13.54;62.48;100447.97;4942327;28;124846;-69
2022/04/05 05:10:55;;;;;;;10.38;5.93;;;;;;;13.55;62.29;100449.69;4933445;28;124435;-68
2022/04/05 05:13:32;;;;;;;11.07;6.25;;;;;;;13.55;62.53;100444.34;4938573;28;114348;-68
2022/04/05 05:16:12;;;;;;;10.55;6.07;;;;;;;13.57;62.43;100445.13;4934979;28;114096;-68
2022/04/05 05:18:39;;;;;;;12.13;6.50;;;;;;;13.58;62.58;100444.16;4932594;28;124279;-68
2022/04/05 05:21:07;;;;;;;9.98;6.40;;;;;;;13.58;62.28;100444.16;4935788;28;124010;-69
2022/04/05 05:23:34;;;;;;;11.05;6.07;;;;;;;13.58;62.48;100449.47;4941301;28;114590;-68
2022/04/05 05:26:01;;;;;;;12.63;6.75;;;;;;;13.58;62.41;100444.16;4933040;28;113961;-68
2022/04/05 05:28:28;;;;;;;10.88;6.68;;;;;;;13.57;62.41;100447.78;4932731;28;124586;-69
2022/04/05 05:30:55;;;;;;;13.65;6.60;;;;;;;13.58;62.44;100439.69;4932452;28;124088;-70
2022/04/05 05:33:22;;;;;;;12.63;7.05;;;;;;;13.59;62.55;100443.19;4933180;28;115501;-69
2022/04/05 05:35:50;;;;;;;12.65;7.07;;;;;;;13.60;62.60;100447.59;4934963;28;114644;-69
2022/04/05 05:38:17;;;;;;;12.05;7.22;;;;;;;13.61;62.54;100450.13;4936172;28;124926;-69
2022/04/05 05:40:45;;;;;;;15.57;7.55;;;;;;;13.62;62.40;100451.84;4934202;28;123879;-69
2022/04/05 05:43:12;;;;;;;12.70;7.20;;;;;;;13.63;62.43;100452.69;4938968;28;114939;-69
2022/04/05 05:45:39;;;;;;;12.05;7.22;;;;;;;13.63;62.31;100452.69;4937885;28;113946;-69
2022/04/05 05:48:07;;;;;;;12.10;7.40;;;;;;;13.62;62.38;100451.84;4948734;28;123119;-69
2022/04/05 05:50:36;;;;;;;15.43;7.57;;;;;;;13.63;62.64;100455.34;4946157;28;123756;-68
2022/04/05 05:53:04;;;;;;;13.82;7.85;;;;;;;13.63;62.43;100463.34;4941065;28;114026;-68
2022/04/05 05:55:31;;;;;;;17.85;7.78;;;;;;;13.63;62.50;100455.34;4952516;28;112767;-69
2022/04/05 05:57:59;;;;;;;12.40;7.55;;;;;;;13.63;62.49;100464.19;4939902;28;124743;-68
2022/04/05 06:00:26;;;;;;;12.98;7.40;;;;;;;13.64;62.45;100470.38;4938582;28;123788;-68
2022/04/05 06:02:56;;;;;;;13.30;7.70;;;;;;;13.65;62.60;100466.75;4959870;28;114352;-68
2022/04/05 06:05:25;;;;;;;12.88;8.35;;;;;;;13.65;62.66;100471.22;4940310;28;114607;-67
2022/04/05 06:07:53;;;;;;;13.52;7.85;;;;;;;13.65;62.44;100476.56;4958820;28;123467;-68
2022/04/05 06:10:21;;;;;;;12.57;7.40;;;;;;;13.63;62.44;100468.66;4957855;28;123197;-68
2022/04/05 06:12:49;;;;;;;12.18;8.05;;;;;;;13.63;62.44;100473.97;4948529;28;114066;-68
2022/04/05 06:15:18;;;;;;;11.77;7.28;;;;;;;13.65;62.59;100471.22;4946447;28;114573;-67
2022/04/05 06:17:47;;;;;;;12.60;7.30;;;;;;;13.64;62.54;100481.03;4944556;28;124091;-67
2022/04/05 06:20:16;;;;;;;13.27;7.32;;;;;;;13.65;62.70;100482.72;4943255;28;124502;-68
2022/04/05 06:23:05;;;;;;;11.85;7.78;;;;;;;13.66;62.71;100472.94;4943133;28;115763;-68
2022/04/05 06:25:35;;;;;;;12.88;7.80;;;;;;;13.68;62.70;100477.22;4936842;28;115257;-68
2022/04/05 06:28:06;;;;;;;13.70;7.57;;;;;;;13.70;62.72;100480.63;4955115;28;124144;-68
2022/04/05 06:30:35;;;;;;;13.27;7.93;;;;;;;13.71;62.74;100482.34;4939087;28;123861;-68
2022/04/05 06:33:06;;;;;;;14.57;8.20;;;;;;;13.71;62.68;100482.34;4938248;28;114243;-68
2022/04/05 06:35:34;;;;;;;13.45;8.13;;;;;;;13.72;62.82;100483.19;4956667;28;113084;-68
2022/04/05 06:38:01;;;;;;;12.48;7.53;;;;;;;13.72;62.72;100489.38;4937467;28;124521;-68
2022/04/05 06:40:28;;;;;;;15.65;8.68;;;;;;;13.74;62.79;100487.47;4934964;28;123607;-68
2022/04/05 06:42:56;;;;;;;14.20;7.82;;;;;;;13.75;62.62;100489.19;4935534;28;114678;-68
2022/04/05 06:45:24;;;;;;;14.13;8.40;;;;;;;13.76;62.66;100493.53;4934660;28;114300;-69
2022/04/05 06:47:52;;;;;;;16.35;8.07;;;;;;;13.77;62.53;100487.28;4931181;28;123910;-69
2022/04/05 06:50:26;;;;;;;13.85;8.00;;;;;;;13.79;62.65;100484.53;4934506;28;123882;-68
2022/04/05 06:52:55;;;;;;;14.32;7.63;;;;;;;13.79;62.64;100496.00;4948792;28;113677;-68
2022/04/05 06:55:24;;;;;;;11.50;7.38;;;;;;;13.80;62.70;100497.69;4934261;28;113709;-69
2022/04/05 06:57:54;;;;;;;12.40;7.43;;;;;;;13.82;62.62;100495.81;4947250;28;124648;-68
2022/04/05 07:00:25;;;;;;;13.65;8.18;;;;;;;13.83;62.63;100502.84;4937064;28;123118;-68
2022/04/05 07:02:54;;;;;;;14.35;7.32;;;;;;;13.85;62.63;100504.56;4933810;28;114635;-69
2022/04/05 07:05:23;;;;;;;13.73;7.88;;;;;;;13.85;62.66;100502.75;4937930;28;114394;-69
2022/04/05 07:07:50;;;;;;;12.90;7.50;;;;;;;13.88;62.63;100509.66;4950022;28;122857;-69
2022/04/05 07:10:19;;;;;;;12.95;7.70;;;;;;;13.89;62.70;100503.41;4933735;28;124054;-69
2022/04/05 07:12:47;;;;;;;13.48;8.10;;;;;;;13.90;62.62;100502.44;4935810;28;115995;-69
2022/04/05 07:15:15;;;;;;;15.52;7.70;;;;;;;13.91;62.64;100509.47;4938729;28;115532;-69
2022/04/05 07:17:43;;;;;;;15.43;7.50;;;;;;;13.92;62.68;100511.19;4937701;28;123112;-68
2022/04/05 07:20:29;;;;;;;13.80;7.43;;;;;;;13.92;62.62;100500.53;4935904;28;125199;-68
2022/04/05 07:22:57;;;;;;;12.63;7.22;;;;;;;13.91;62.55;100499.69;4935836;28;114446;-68
2022/04/05 07:25:24;;;;;;;13.70;7.35;;;;;;;13.92;62.62;100505.84;4937521;28;114971;-68
2022/04/05 07:27:52;;;;;;;13.48;7.60;;;;;;;13.91;62.48;100504.16;4938879;28;123859;-68
2022/04/05 07:30:20;;;;;;;11.25;7.10;;;;;;;13.90;62.59;100502.44;4940327;28;123623;-69
2022/04/05 07:32:48;;;;;;;10.35;6.65;;;;;;;13.91;62.56;100510.34;4935005;28;114599;-68
2022/04/05 07:35:15;;;;;;;13.95;7.28;;;;;;;13.91;62.57;100504.16;4937640;28;113815;-68
2022/04/05 07:37:43;;;;;;;11.85;6.95;;;;;;;13.93;62.75;100503.09;4932533;28;124093;-68
2022/04/05 07:40:10;;;;;;;13.63;7.32;;;;;;;13.97;62.65;100498.44;4938359;28;123919;-68
2022/04/05 07:42:40;;;;;;;9.80;6.93;;;;;;;14.00;62.67;100508.91;4939149;28;114394;-68
2022/04/05 07:45:08;;;;;;;11.45;7.78;;;;;;;14.02;62.65;100501.66;4941551;28;113877;-67
2022/04/05 07:47:37;;;;;;;12.60;7.97;;;;;;;14.05;62.73;100498.78;4941985;28;124449;-67
2022/04/05 07:50:05;;;;;;;12.93;7.00;;;;;;;14.09;62.77;100502.09;4940933;28;123637;-66
2022/04/05 07:52:33;;;;;;;12.68;7.10;;;;;;;14.14;62.99;100506.16;4931490;28;114396;-68
2022/04/05 07:55:00;;;;;;;11.73;7.22;;;;;;;14.18;62.84;100502.38;4938901;28;114080;-68
2022/04/05 07:57:28;;;;;;;14.43;7.32;;;;;;;14.23;62.79;100498.53;4931025;28;123015;-69
2022/04/05 07:59:58;;;;;;;13.55;7.53;;;;;;;14.25;62.61;100507.28;4934839;28;122687;-68
2022/04/05 08:02:25;;;;;;;12.50;7.35;;;;;;;14.26;62.57;100501.00;4934220;28;115904;-69
2022/04/05 08:04:58;;;;;;;13.68;7.72;;;;;;;14.28;62.59;100512.41;4934357;28;114946;-69
2022/04/05 08:07:26;;;;;;;12.50;7.40;;;;;;;14.29;62.51;100508.78;4933839;28;124140;-68
2022/04/05 08:09:53;;;;;;;11.25;6.85;;;;;;;14.30;62.49;100513.19;4932318;28;123749;-69
2022/04/05 08:12:20;;;;;;;16.50;6.97;;;;;;;14.31;62.52;100517.53;4933724;28;114118;-68
2022/04/05 08:14:47;;;;;;;10.95;6.68;;;;;;;14.33;62.49;100520.94;4931656;28;113884;-68
2022/04/05 08:17:14;;;;;;;13.00;6.80;;;;;;;14.35;62.39;100513.72;4930333;28;124040;-69
2022/04/05 08:19:41;;;;;;;10.45;6.20;;;;;;;14.35;62.22;100508.38;4931717;28;123944;-68
2022/04/05 08:22:08;;;;;;;13.05;7.05;;;;;;;14.35;62.41;100513.72;4953532;28;114225;-68
2022/04/05 08:24:36;;;;;;;11.40;6.60;;;;;;;14.35;62.32;100513.72;4931349;28;114931;-69
2022/04/05 08:27:03;;;;;;;13.15;6.55;;;;;;;14.34;62.47;100518.19;4932765;28;124133;-69
2022/04/05 08:29:30;;;;;;;12.35;5.97;;;;;;;14.35;62.19;100513.72;4930787;28;124044;-68
2022/04/05 08:31:58;;;;;;;11.00;6.18;;;;;;;14.32;62.08;100521.91;4936340;28;114929;-68
2022/04/05 08:34:25;;;;;;;12.43;6.38;;;;;;;14.33;62.35;100515.63;4936977;28;113841;-68
2022/04/05 08:36:53;;;;;;;13.55;6.60;;;;;;;14.35;62.31;100524.38;4942717;28;123687;-68
2022/04/05 08:39:20;;;;;;;11.93;6.40;;;;;;;14.37;62.38;100518.00;4932384;28;123921;-68
2022/04/05 08:41:47;;;;;;;10.85;6.60;;;;;;;14.39;62.43;100521.41;4931127;28;114102;-68
2022/04/05 08:44:18;;;;;;;14.27;6.80;;;;;;;14.45;62.42;100521.94;4935058;28;114058;-68
2022/04/05 08:46:46;;;;;;;13.73;6.47;;;;;;;14.49;62.34;100526.97;4946564;28;124789;-68
2022/04/05 08:49:13;;;;;;;12.68;6.70;;;;;;;14.53;62.25;100523.16;4934605;28;123775;-68
2022/04/05 08:51:40;;;;;;;11.50;6.10;;;;;;;14.58;62.42;100520.22;4933527;28;115080;-68
2022/04/05 08:54:07;;;;;;;14.50;6.43;;;;;;;14.60;62.39;100535.16;4939488;28;115251;-68
2022/04/05 08:56:35;;;;;;;12.05;6.50;;;;;;;14.64;62.45;100529.63;4939773;28;124157;-68
2022/04/05 08:59:03;;;;;;;12.15;6.53;;;;;;;14.70;62.32;100529.19;4949276;28;123254;-68
2022/04/05 09:01:30;;;;;;;10.45;6.10;;;;;;;14.74;62.29;100530.69;4933479;28;114574;-68
2022/04/05 09:03:58;;;;;;;10.30;5.65;;;;;;;14.77;62.34;100530.50;4937167;28;114148;-69
2022/04/05 09:06:32;;;;;;;12.05;6.25;;;;;;;14.79;62.31;100531.25;4936656;28;124339;-68
2022/04/05 09:09:14;;;;;;;9.97;6.10;;;;;;;14.82;62.10;100533.69;4940473;28;124448;-69
2022/04/05 09:11:49;;;;;;;10.02;6.03;;;;;;;14.84;62.24;100537.09;4933121;28;114707;-68
2022/04/05 09:14:23;;;;;;;9.40;5.45;;;;;;;14.87;62.13;100536.06;4934660;28;114123;-68
2022/04/05 09:17:08;;;;;;;9.95;5.40;;;;;;;14.88;62.50;100535.97;4935907;28;125015;-68
2022/04/05 09:19:45;;;;;;;9.07;5.00;;;;;;;14.90;62.14;100536.69;4952370;28;123715;-68
2022/04/05 09:22:13;;;;;;;8.98;5.03;;;;;;;14.92;62.09;100533.94;4940507;28;114344;-68
2022/04/05 09:24:45;;;;;;;8.32;5.07;;;;;;;14.95;62.37;100539.88;4951429;28;113324;-68
2022/04/05 09:27:12;;;;;;;10.02;4.78;;;;;;;15.01;62.23;100545.78;4958426;28;123310;-68
2022/04/05 09:29:47;;;;;;;7.78;4.50;;;;;;;15.05;62.19;100544.59;4937782;28;123879;-68
2022/04/05 09:32:37;;;;;;;5.97;4.60;;;;;;;15.07;62.21;100542.66;4934554;28;113987;-68
2022/04/05 09:35:06;;;;;;;6.80;4.43;;;;;;;15.09;62.17;100541.63;4935439;28;114084;-68
2022/04/05 09:37:38;;;;;;;7.93;4.90;;;;;;;15.12;62.15;100544.06;4931986;28;124012;-67
2022/04/05 09:40:32;;;;;;;7.82;4.43;;;;;;;15.15;62.27;100551.03;4948832;28;122891;-68
2022/04/05 09:43:21;;;;;;;8.55;4.00;;;;;;;15.13;61.86;100552.94;4933772;28;115449;-67
2022/04/05 09:46:00;;;;;;;7.72;3.70;;;;;;;15.12;62.09;100545.88;4933821;28;114649;-68
2022/04/05 09:48:31;;;;;;;6.40;3.70;;;;;;;15.10;61.79;100548.66;4932974;28;123289;-68
2022/04/05 09:51:11;;;;;;;6.22;3.60;;;;;;;15.04;61.84;100553.56;4930845;28;124794;-68
2022/04/05 09:53:38;;;;;;;8.85;3.70;;;;;;;15.02;61.89;100551.00;4934108;28;115338;-68
2022/04/05 09:56:07;;;;;;;5.75;3.70;;;;;;;15.02;61.96;100550.16;4933835;28;113996;-68
2022/04/05 09:58:41;;;;;;;7.40;4.00;;;;;;;15.03;62.53;100559.84;4931947;28;123957;-68
2022/04/05 10:01:11;;;;;;;7.82;3.40;;;;;;;15.05;62.14;100552.59;4931851;28;123823;-68
2022/04/05 10:03:40;;;;;;;5.65;3.85;;;;;;;15.06;62.20;100551.66;4964281;28;113941;-68
2022/04/05 10:06:08;;;;;;;5.82;3.88;;;;;;;15.07;62.06;100554.22;4961758;28;114242;-68
2022/04/05 10:08:37;;;;;;;6.90;4.32;;;;;;;15.09;62.23;100557.63;4955943;28;122943;-68
2022/04/05 10:11:05;;;;;;;7.13;4.25;;;;;;;15.11;62.18;100561.03;4944019;28;123984;-68
2022/04/05 10:13:33;;;;;;;8.20;4.40;;;;;;;15.14;61.94;100557.31;4942144;28;114079;-68
2022/04/05 10:16:00;;;;;;;8.20;4.30;;;;;;;15.16;62.06;100558.94;4934906;28;113832;-68
2022/04/05 10:18:34;;;;;;;6.15;3.78;;;;;;;15.16;62.14;100558.03;4953776;28;123396;-68
2022/04/05 10:21:03;;;;;;;7.80;3.58;;;;;;;15.15;61.95;100564.34;4937643;28;124333;-68
2022/04/05 10:23:32;;;;;;;7.55;4.05;;;;;;;15.13;61.85;100552.94;4958304;28;114847;-68
2022/04/05 10:25:59;;;;;;;4.75;3.30;;;;;;;15.11;61.79;100561.03;4959118;28;114080;-68
2022/04/05 10:28:29;;;;;;;5.18;3.42;;;;;;;15.10;61.90;100556.66;4942481;28;123380;-69
2022/04/05 10:31:03;;;;;;;6.57;3.30;;;;;;;15.10;62.08;100563.81;4941489;28;124218;-68
2022/04/05 10:33:45;;;;;;;5.18;3.33;;;;;;;15.10;62.00;100563.81;4936867;28;115319;-68
2022/04/05 10:36:12;;;;;;;5.32;3.63;;;;;;;15.10;61.73;100566.47;4936889;28;115296;-67
2022/04/05 10:38:39;;;;;;;5.43;3.53;;;;;;;15.09;61.82;100572.78;4960297;28;122976;-68
2022/04/05 10:41:20;;;;;;;6.25;3.72;;;;;;;15.06;61.91;100563.16;4938906;28;123924;-68
2022/04/05 10:44:16;;;;;;;5.55;3.60;;;;;;;15.04;61.78;100569.56;4940417;28;115024;-68
2022/04/05 10:46:51;;;;;;;;;;;;;;;15.01;61.75;100569.78;4949208;28;113987;-68
2022/04/05 10:49:47;;;;;;;6.90;3.22;;;;;;;15.04;61.73;100569.56;4930847;28;124322;-68
2022/04/05 10:52:20;;;;;;;5.57;3.55;;;;;;;15.01;61.64;100570.63;4952636;28;126178;-69
2022/04/05 10:54:52;;;;;;;4.85;3.30;;;;;;;15.01;61.90;100564.44;4950556;28;114471;-68
2022/04/05 10:57:27;;;;;;;6.68;4.15;;;;;;;15.02;61.79;100566.16;4951525;28;114549;-68
2022/04/05 11:00:02;;;;;;;6.03;4.30;;;;;;;15.03;62.13;100559.84;4948147;28;124125;-68
2022/04/05 11:02:44;;;;;;;7.97;4.57;;;;;;;15.04;61.91;100558.91;4967312;28;123948;-68
2022/04/05 11:05:12;;;;;;;5.60;4.00;;;;;;;15.05;61.95;100556.13;4950646;28;114871;-68
2022/04/05 11:07:51;;;;;;;6.47;4.07;;;;;;;15.05;61.87;100555.25;4945072;28;114621;-67
2022/04/05 11:10:20;;;;;;;7.13;4.30;;;;;;;15.04;61.79;100558.91;4947099;28;122925;-68
2022/04/05 11:12:48;;;;;;;6.10;4.43;;;;;;;15.04;61.72;100558.91;4930695;28;123663;-68
2022/04/05 11:15:16;;;;;;;6.32;4.30;;;;;;;15.04;61.76;100564.25;4932015;28;114177;-68
2022/04/05 11:17:44;;;;;;;8.80;4.45;;;;;;;15.04;61.73;100572.25;4939546;28;114363;-68
2022/04/05 11:20:13;;;;;;;7.70;4.60;;;;;;;15.04;61.86;100558.91;4953065;28;123053;-68
2022/04/05 11:22:41;;;;;;;8.73;4.82;;;;;;;15.04;61.85;100558.91;4931395;28;124665;-68
2022/04/05 11:25:13;;;;;;;7.90;4.55;;;;;;;15.05;61.80;100571.25;4932257;28;115069;-67